Time;durP1;ratioP1;P1;durP2;ratioP2;P2;SDS_P1;SDS_P2;PMS_P1;PMS_P2;Temp;Humidity;BMP_temperature;BMP_pressure;BME280_temperature;BME280_humidity;BME280_pressure;Samples;Min_cycle;Max_cycle;Signal;HPM_P1;HPM_P2
2023/01/21 00:01:08;;;;;;;10.83;9.97;;;;;;;21.26;38.10;94464.19;6139951;28;103000;-63
2023/01/21 00:04:11;;;;;;;10.60;9.77;;;;;;;21.26;37.81;94458.88;6140452;28;104221;-64
2023/01/21 00:07:16;;;;;;;10.37;9.47;;;;;;;21.24;37.58;94458.41;6131044;28;104262;-63
2023/01/21 00:10:19;;;;;;;10.13;9.23;;;;;;;21.23;37.92;94456.06;6140553;28;103163;-63
2023/01/21 00:13:23;;;;;;;10.50;9.70;;;;;;;21.18;37.65;94457.00;6141929;28;103940;-64
2023/01/21 00:16:26;;;;;;;10.20;9.40;;;;;;;21.21;37.66;94459.81;6140147;28;103099;-64
2023/01/21 00:19:29;;;;;;;8.90;8.20;;;;;;;21.22;37.90;94471.25;6131757;28;105641;-64
2023/01/21 00:22:33;;;;;;;9.03;8.30;;;;;;;21.22;37.69;94473.91;6140164;28;103154;-63
2023/01/21 00:25:36;;;;;;;9.33;8.63;;;;;;;21.19;37.59;94467.31;6146986;28;103090;-63
2023/01/21 00:28:42;;;;;;;8.97;8.27;;;;;;;21.22;37.49;94447.28;6131305;28;103449;-63
2023/01/21 00:31:48;;;;;;;9.07;8.37;;;;;;;21.20;37.65;94447.59;6139577;28;102985;-63
2023/01/21 00:34:55;;;;;;;8.20;7.60;;;;;;;21.22;37.28;94468.56;6141489;28;103181;-64
2023/01/21 00:38:01;;;;;;;9.23;8.53;;;;;;;21.21;37.24;94467.00;6140668;28;102938;-63
2023/01/21 00:41:06;;;;;;;7.67;7.13;;;;;;;21.18;37.36;94454.34;6128758;28;104017;-64
2023/01/21 00:44:18;;;;;;;8.83;8.20;;;;;;;21.19;37.40;94438.06;6140785;28;104017;-63
2023/01/21 00:47:21;;;;;;;8.60;8.00;;;;;;;21.19;37.57;94431.97;6139430;28;103439;-64
2023/01/21 00:50:26;;;;;;;8.40;7.80;;;;;;;21.17;37.52;94460.72;6140803;28;102845;-64
2023/01/21 00:53:38;;;;;;;8.50;7.80;;;;;;;21.15;37.23;94441.66;6128840;28;103200;-63
2023/01/21 00:56:41;;;;;;;7.33;6.73;;;;;;;21.17;37.27;94436.78;6140459;28;105807;-63
2023/01/21 00:59:44;;;;;;;7.87;7.23;;;;;;;21.16;37.12;94432.56;6139333;28;102987;-63
2023/01/21 01:02:47;;;;;;;8.70;7.83;;;;;;;21.08;37.29;94431.47;6130816;28;104462;-63
2023/01/21 01:05:52;;;;;;;7.33;6.73;;;;;;;21.15;37.20;94457.59;6140019;28;103482;-63
2023/01/21 01:08:57;;;;;;;7.33;6.83;;;;;;;21.12;36.97;94447.59;6139377;28;104485;-63
2023/01/21 01:12:00;;;;;;;7.80;7.20;;;;;;;21.14;37.07;94440.06;6139531;28;103339;-63
2023/01/21 01:15:04;;;;;;;7.33;6.60;;;;;;;21.15;37.09;94446.97;6127461;28;104390;-64
2023/01/21 01:18:07;;;;;;;7.40;6.90;;;;;;;21.14;37.02;94437.41;6138441;28;104041;-64
2023/01/21 01:21:14;;;;;;;7.13;6.53;;;;;;;21.07;37.40;94421.94;6139317;28;103021;-63
2023/01/21 01:24:18;;;;;;;7.30;6.80;;;;;;;21.13;36.82;94443.84;6139594;28;104171;-63
2023/01/21 01:27:21;;;;;;;7.30;6.80;;;;;;;21.08;36.85;94420.06;6120025;28;103348;-63
2023/01/21 01:30:24;;;;;;;7.43;6.73;;;;;;;21.13;36.80;94428.66;6138779;28;103766;-63
2023/01/21 01:33:27;;;;;;;7.43;6.83;;;;;;;21.08;36.93;94418.19;6139500;28;103228;-63
2023/01/21 01:36:32;;;;;;;7.07;6.57;;;;;;;21.10;37.13;94434.63;6134104;28;104013;-63
2023/01/21 01:39:36;;;;;;;6.10;5.60;;;;;;;21.12;36.89;94418.34;6134080;28;104566;-63
2023/01/21 01:42:39;;;;;;;6.53;6.00;;;;;;;21.05;36.85;94412.72;6139153;28;102938;-64
2023/01/21 01:45:43;;;;;;;5.80;5.40;;;;;;;21.09;37.01;94427.72;6137855;28;103058;-63
2023/01/21 01:48:55;;;;;;;6.70;6.20;;;;;;;20.92;36.68;94393.91;6128175;28;102922;-63
2023/01/21 01:52:03;;;;;;;6.70;6.20;;;;;;;21.08;36.77;94404.09;6138511;28;103359;-64
2023/01/21 01:55:10;;;;;;;6.60;6.10;;;;;;;21.02;36.83;94373.41;6145832;28;103140;-63
2023/01/21 01:58:16;;;;;;;6.30;5.80;;;;;;;21.07;36.68;94392.69;6138286;28;104042;-63
2023/01/21 02:01:20;;;;;;;5.90;5.50;;;;;;;21.09;36.86;94381.72;6128090;28;103946;-63
2023/01/21 02:04:27;;;;;;;5.97;5.47;;;;;;;21.07;36.70;94389.25;6139396;28;103156;-63
2023/01/21 02:07:38;;;;;;;5.50;5.10;;;;;;;21.00;36.56;94380.91;6138860;28;102902;-64
2023/01/21 02:10:42;;;;;;;5.60;5.30;;;;;;;21.07;36.65;94402.53;6134483;28;104121;-63
2023/01/21 02:13:50;;;;;;;5.30;4.90;;;;;;;21.04;36.50;94384.53;6134489;28;103165;-63
2023/01/21 02:17:08;;;;;;;5.03;4.63;;;;;;;21.06;36.74;94383.13;6138707;28;102951;-63
2023/01/21 02:20:34;;;;;;;5.83;5.43;;;;;;;21.05;36.59;94362.19;6138123;28;103345;-63
2023/01/21 02:23:58;;;;;;;5.10;4.67;;;;;;;21.05;37.06;94381.56;6120520;28;102813;-63
2023/01/21 02:27:24;;;;;;;5.50;5.10;;;;;;;21.06;36.78;94347.78;6138802;28;104404;-63
2023/01/21 02:30:53;;;;;;;4.83;4.43;;;;;;;21.05;36.89;94335.56;6138374;28;104022;-63
2023/01/21 02:34:16;;;;;;;5.13;4.73;;;;;;;21.05;36.71;94341.69;6129159;28;104406;-63
2023/01/21 02:37:30;;;;;;;4.90;4.50;;;;;;;21.05;36.92;94354.97;6138296;28;104218;-63
2023/01/21 02:40:39;;;;;;;5.20;4.80;;;;;;;21.03;37.00;94349.16;6138298;28;104514;-64
2023/01/21 02:43:50;;;;;;;5.27;4.80;;;;;;;21.03;37.04;94349.16;6138327;28;104142;-63
2023/01/21 02:46:58;;;;;;;5.07;4.67;;;;;;;21.02;37.00;94344.94;6116561;28;103279;-62
2023/01/21 02:50:06;;;;;;;4.43;4.13;;;;;;;21.02;36.86;94363.56;6138006;28;103086;-63
2023/01/21 02:53:24;;;;;;;4.67;4.30;;;;;;;21.00;36.67;94351.66;6138217;28;103055;-63
2023/01/21 02:56:27;;;;;;;4.37;4.07;;;;;;;20.97;36.90;94344.31;6128372;28;105404;-62
2023/01/21 02:59:31;;;;;;;4.10;3.80;;;;;;;21.00;36.67;94344.44;6140831;28;103132;-63
2023/01/21 03:03:03;;;;;;;4.77;4.37;;;;;;;21.00;36.47;94338.34;6138129;28;103034;-63
2023/01/21 03:06:29;;;;;;;4.17;3.87;;;;;;;20.98;36.45;94320.03;6141665;28;103308;-63
2023/01/21 03:09:33;;;;;;;4.50;4.10;;;;;;;20.98;36.47;94313.94;6124320;28;104162;-63
2023/01/21 03:12:43;;;;;;;4.77;4.43;;;;;;;21.00;36.55;94317.06;6141662;28;103133;-64
2023/01/21 03:19:21;;;;;;;4.70;4.30;;;;;;;20.93;36.40;94298.94;6129121;28;102930;-61
2023/01/21 03:22:33;;;;;;;4.60;4.30;;;;;;;20.98;36.45;94313.94;6138978;28;103065;-62
2023/01/21 03:25:38;;;;;;;4.13;3.83;;;;;;;20.97;36.43;94301.75;6141943;28;103129;-63
2023/01/21 03:28:45;;;;;;;4.43;4.13;;;;;;;20.97;36.22;94301.75;6140646;28;103870;-63
2023/01/21 03:31:53;;;;;;;4.30;3.90;;;;;;;20.97;36.24;94291.88;6130513;28;104475;-62
2023/01/21 03:34:57;;;;;;;4.50;4.10;;;;;;;20.97;36.48;94283.13;6135885;28;103873;-61
2023/01/21 03:38:09;;;;;;;4.37;4.07;;;;;;;20.96;36.20;94292.22;6140881;28;104170;-61
2023/01/21 03:41:15;;;;;;;3.57;3.30;;;;;;;20.90;36.58;94279.09;6135035;28;103298;-61
2023/01/21 03:44:18;;;;;;;3.97;3.67;;;;;;;20.92;36.31;94281.44;6133211;28;102866;-61
2023/01/21 03:47:27;;;;;;;4.10;3.80;;;;;;;20.93;36.40;94275.00;6141333;28;103470;-63
2023/01/21 03:50:35;;;;;;;3.80;3.50;;;;;;;;;;6140662;28;103443;-63
2023/01/21 03:53:39;;;;;;;4.27;3.97;;;;;;;;;;6129327;28;102907;-61
2023/01/21 03:56:43;;;;;;;4.03;3.80;;;;;;;20.92;36.37;94249.50;6139559;28;104074;-63
2023/01/21 03:59:49;;;;;;;4.00;3.70;;;;;;;20.95;36.43;94248.09;6139496;28;103065;-63
2023/01/21 04:02:52;;;;;;;3.97;3.67;;;;;;;20.95;36.21;94264.06;6138446;28;103952;-63
2023/01/21 04:05:55;;;;;;;3.50;3.30;;;;;;;20.93;36.26;94245.75;6126784;28;104075;-63
2023/01/21 04:08:59;;;;;;;3.60;3.40;;;;;;;20.92;36.03;94255.63;6140685;28;103190;-63
2023/01/21 04:12:02;;;;;;;3.83;3.63;;;;;;;20.93;36.16;94249.19;6139941;28;102857;-63
2023/01/21 04:15:07;;;;;;;3.30;3.10;;;;;;;20.93;36.17;94245.75;6138184;28;103173;-63
2023/01/21 04:18:10;;;;;;;4.27;3.87;;;;;;;20.93;36.22;94251.84;6132240;28;103349;-63
2023/01/21 04:21:15;;;;;;;4.20;3.90;;;;;;;20.91;36.59;94248.75;6138579;28;104052;-63
2023/01/21 04:24:19;;;;;;;3.57;3.30;;;;;;;20.86;36.17;94226.84;6140115;28;103636;-62
2023/01/21 04:27:23;;;;;;;3.97;3.67;;;;;;;20.91;36.30;94254.06;6128073;28;103248;-63
2023/01/21 04:30:26;;;;;;;3.77;3.57;;;;;;;20.85;36.68;94252.66;6136030;28;102946;-62
2023/01/21 04:33:29;;;;;;;3.40;3.20;;;;;;;20.90;36.16;94255.16;6134640;28;103494;-62
2023/01/21 04:36:32;;;;;;;3.70;3.40;;;;;;;20.92;36.14;94265.47;6137202;28;103082;-62
2023/01/21 04:39:36;;;;;;;3.37;3.17;;;;;;;20.89;36.27;94276.75;6126771;28;104011;-62
2023/01/21 04:42:42;;;;;;;3.90;3.60;;;;;;;20.89;36.14;94276.75;6138746;28;104187;-63
2023/01/21 04:45:45;;;;;;;4.10;3.70;;;;;;;20.90;36.50;94265.00;6138959;28;103189;-62
2023/01/21 04:48:48;;;;;;;3.13;2.93;;;;;;;20.90;36.21;94259.69;6138931;28;102963;-62
2023/01/21 04:51:51;;;;;;;3.60;3.40;;;;;;;20.79;36.15;94253.91;6127213;28;103477;-62
2023/01/21 04:54:55;;;;;;;3.83;3.50;;;;;;;20.90;35.98;94283.63;6139211;28;103473;-62
2023/01/21 04:57:58;;;;;;;4.13;3.83;;;;;;;20.90;36.26;94294.25;6139176;28;104306;-62
2023/01/21 05:01:01;;;;;;;3.17;2.97;;;;;;;20.86;35.86;94291.47;6134668;28;104231;-62
2023/01/21 05:04:05;;;;;;;3.50;3.30;;;;;;;20.81;36.21;94285.50;6125501;28;104248;-62
2023/01/21 05:07:10;;;;;;;3.90;3.60;;;;;;;20.89;35.92;94293.47;6135812;28;103129;-62
2023/01/21 05:10:17;;;;;;;3.30;3.10;;;;;;;20.89;35.95;94290.81;6133915;28;103196;-62
2023/01/21 05:13:21;;;;;;;3.80;3.53;;;;;;;20.88;35.85;94291.94;6124359;28;103274;-62
2023/01/21 05:16:23;;;;;;;3.57;3.27;;;;;;;20.89;36.08;94303.34;6137636;28;103306;-62
2023/01/21 05:19:40;;;;;;;3.43;3.23;;;;;;;20.89;35.87;94309.44;6137190;28;103542;-62
2023/01/21 05:22:46;;;;;;;3.63;3.40;;;;;;;20.84;36.32;94301.63;6138422;28;103265;-62
2023/01/21 05:25:50;;;;;;;3.17;2.97;;;;;;;20.79;36.14;94282.38;6120164;28;105471;-62
2023/01/21 05:28:53;;;;;;;3.37;3.07;;;;;;;20.88;35.85;94297.25;6138448;28;103009;-62
2023/01/21 05:31:56;;;;;;;3.10;2.90;;;;;;;20.88;35.86;94309.75;6137741;28;103171;-62
2023/01/21 05:34:59;;;;;;;3.40;3.20;;;;;;;20.88;36.06;94323.84;6132881;28;103326;-62
2023/01/21 05:38:04;;;;;;;3.50;3.30;;;;;;;20.88;36.02;94333.69;6130323;28;103933;-62
2023/01/21 05:41:09;;;;;;;3.33;3.13;;;;;;;20.87;35.84;94318.84;6135829;28;103154;-62
2023/01/21 05:44:14;;;;;;;3.00;2.80;;;;;;;20.87;35.82;94327.59;6137243;28;103980;-62
2023/01/21 05:47:19;;;;;;;3.07;2.87;;;;;;;20.85;35.93;94313.84;6127429;28;103270;-62
2023/01/21 05:50:22;;;;;;;2.93;2.73;;;;;;;20.88;36.11;94321.19;6136505;28;103146;-62
2023/01/21 05:53:28;;;;;;;3.77;3.43;;;;;;;20.89;35.98;94327.28;6135279;28;103022;-62
2023/01/21 05:56:32;;;;;;;3.27;3.07;;;;;;;20.87;35.72;94330.25;6135736;28;103928;-63
2023/01/21 05:59:35;;;;;;;3.20;3.00;;;;;;;20.87;35.74;94345.44;6126188;28;103886;-62
2023/01/21 06:02:38;;;;;;;2.83;2.63;;;;;;;20.86;36.06;94336.66;6136919;28;104406;-62
2023/01/21 06:05:41;;;;;;;3.00;2.80;;;;;;;20.85;35.98;94332.44;6137985;28;103009;-62
2023/01/21 06:08:47;;;;;;;3.40;3.20;;;;;;;20.86;36.09;94336.66;6136279;28;103055;-62
2023/01/21 06:11:51;;;;;;;3.20;3.00;;;;;;;20.86;35.84;94339.31;6130728;28;103915;-62
2023/01/21 06:14:54;;;;;;;3.30;2.60;;;;;;;20.88;35.94;94339.78;6138321;28;103169;-62
2023/01/21 06:17:58;;;;;;;3.50;2.67;;;;;;;20.89;36.24;94349.31;6136204;28;103523;-62
2023/01/21 06:21:01;;;;;;;3.50;3.20;;;;;;;20.87;36.27;94340.88;6132043;28;103182;-62
2023/01/21 06:24:05;;;;;;;5.53;3.27;;;;;;;20.86;36.67;94352.63;6137597;28;102955;-62
2023/01/21 06:27:11;;;;;;;3.53;3.23;;;;;;;20.87;36.67;94356.84;6136982;28;102982;-62
2023/01/21 06:30:14;;;;;;;3.30;3.00;;;;;;;20.84;37.12;94354.81;6142306;28;103247;-63
2023/01/21 06:33:18;;;;;;;3.77;3.37;;;;;;;20.88;37.53;94363.72;6126262;28;103264;-63
2023/01/21 06:36:21;;;;;;;4.20;3.80;;;;;;;20.90;37.25;94371.38;6137986;28;103141;-63
2023/01/21 06:39:26;;;;;;;5.63;4.17;;;;;;;20.88;37.15;94363.72;6141267;28;103942;-63
2023/01/21 06:42:31;;;;;;;6.07;3.93;;;;;;;20.91;37.60;94360.44;6131299;28;104014;-62
2023/01/21 06:45:34;;;;;;;5.40;5.00;;;;;;;20.91;37.21;94373.72;6142156;28;103040;-62
2023/01/21 06:48:37;;;;;;;4.23;3.93;;;;;;;20.88;36.97;94352.31;6140159;28;103496;-62
2023/01/21 06:51:42;;;;;;;5.50;4.97;;;;;;;20.89;36.98;94362.63;6146340;28;102934;-63
2023/01/21 06:54:45;;;;;;;5.67;5.20;;;;;;;20.90;37.06;94364.19;6131615;28;104425;-62
2023/01/21 06:57:49;;;;;;;7.00;6.07;;;;;;;20.85;36.75;94360.91;6140665;28;104279;-62
2023/01/21 07:00:55;;;;;;;7.17;6.57;;;;;;;20.92;36.75;94388.59;6140131;28;104262;-62
2023/01/21 07:04:00;;;;;;;7.30;6.60;;;;;;;20.92;36.93;94396.56;6129249;28;104092;-62
2023/01/21 07:07:03;;;;;;;7.80;7.10;;;;;;;20.92;36.59;94399.22;6127781;28;105399;-62
2023/01/21 07:10:07;;;;;;;8.73;7.93;;;;;;;20.92;36.63;94393.91;6137995;28;103028;-62
2023/01/21 07:13:12;;;;;;;9.37;8.50;;;;;;;;;;6129098;28;103381;-61
2023/01/21 07:16:18;;;;;;;9.43;8.53;;;;;;;20.96;36.81;94388.75;6134957;28;104086;-62
2023/01/21 07:19:23;;;;;;;10.20;9.13;;;;;;;20.85;36.56;94382.97;6137459;28;103187;-61
2023/01/21 07:22:26;;;;;;;9.50;8.60;;;;;;;20.97;36.74;94392.19;6143477;28;102884;-62
2023/01/21 07:25:31;;;;;;;9.20;8.30;;;;;;;20.97;36.65;94376.22;6141452;28;104052;-62
2023/01/21 07:28:35;;;;;;;9.50;8.63;;;;;;;20.99;36.42;94389.97;6132263;28;104143;-61
2023/01/21 07:31:38;;;;;;;8.90;8.10;;;;;;;21.00;36.44;94388.88;6140128;28;103981;-62
2023/01/21 07:34:46;;;;;;;8.80;8.10;;;;;;;20.99;36.51;94400.63;6122996;28;103092;-62
2023/01/21 07:37:49;;;;;;;8.70;7.90;;;;;;;20.98;36.50;94389.19;6141409;28;104149;-62
2023/01/21 07:40:54;;;;;;;9.13;8.33;;;;;;;20.92;36.34;94358.56;6128484;28;103055;-62
2023/01/21 07:43:59;;;;;;;8.77;8.07;;;;;;;21.04;36.10;94368.56;6140335;28;103091;-62
2023/01/21 07:47:02;;;;;;;7.43;6.80;;;;;;;21.11;35.97;94388.28;6140012;28;104149;-63
2023/01/21 07:50:07;;;;;;;8.17;7.57;;;;;;;21.28;36.20;94376.06;6138035;28;103889;-63
2023/01/21 07:53:11;;;;;;;10.13;7.40;;;;;;;21.21;34.42;94374.66;6141134;28;102969;-63
2023/01/21 07:56:16;;;;;;;6.87;6.27;;;;;;;20.93;34.01;94376.06;6140429;28;103003;-63
2023/01/21 07:59:22;;;;;;;8.23;6.70;;;;;;;20.92;33.24;94385.16;6139814;28;103850;-63
2023/01/21 08:02:25;;;;;;;8.23;6.43;;;;;;;20.92;34.52;94382.50;6130096;28;103932;-63
2023/01/21 08:05:28;;;;;;;8.10;7.13;;;;;;;21.00;34.55;94376.38;6140617;28;104051;-62
2023/01/21 08:08:33;;;;;;;5.50;5.00;;;;;;;21.10;33.14;94369.97;6128852;28;103318;-63
2023/01/21 08:11:38;;;;;;;7.80;6.67;;;;;;;20.44;32.97;94375.44;6139859;28;104179;-62
2023/01/21 08:14:43;;;;;;;8.23;5.57;;;;;;;20.32;31.80;94377.91;6129411;28;103031;-65
2023/01/21 08:17:47;;;;;;;6.40;4.50;;;;;;;19.95;32.84;94387.16;6137002;28;103251;-64
2023/01/21 08:20:54;;;;;;;4.60;4.20;;;;;;;20.65;33.56;94375.59;6146046;28;103170;-61
2023/01/21 08:23:57;;;;;;;5.87;3.90;;;;;;;20.99;33.64;94374.81;6137972;28;103425;-63
2023/01/21 08:27:00;;;;;;;3.83;3.53;;;;;;;21.11;33.24;94379.53;6132268;28;103875;-64
2023/01/21 08:30:09;;;;;;;4.27;3.33;;;;;;;21.17;30.41;94379.06;6143976;28;103896;-64
2023/01/21 08:33:13;;;;;;;2.90;2.70;;;;;;;21.25;32.63;94398.75;6138523;28;103417;-65
2023/01/21 08:36:16;;;;;;;3.53;3.23;;;;;;;21.25;30.70;94392.66;6128470;28;103398;-63
2023/01/21 08:39:19;;;;;;;10.67;3.70;;;;;;;21.19;31.37;94398.16;6142732;28;103558;-62
2023/01/21 08:42:22;;;;;;;3.10;2.80;;;;;;;21.11;32.45;94393.59;6142743;28;103848;-63
2023/01/21 08:45:26;;;;;;;2.80;2.60;;;;;;;21.15;31.90;94388.44;6139508;28;103055;-63
2023/01/21 08:48:30;;;;;;;2.80;2.60;;;;;;;21.20;31.45;94396.28;6124990;28;103513;-63
2023/01/21 08:51:33;;;;;;;3.20;3.00;;;;;;;21.18;32.04;94393.94;6137841;28;104358;-63
2023/01/21 08:54:36;;;;;;;3.03;2.83;;;;;;;21.17;32.27;94396.88;6141571;28;103250;-63
2023/01/21 08:57:39;;;;;;;3.10;2.50;;;;;;;21.28;31.46;94395.47;6141208;28;103145;-63
2023/01/21 09:00:43;;;;;;;2.47;2.27;;;;;;;21.35;30.44;94392.34;6128227;28;103850;-63
2023/01/21 09:03:46;;;;;;;2.63;2.40;;;;;;;21.31;31.33;94392.16;6140059;28;104130;-64
2023/01/21 09:06:52;;;;;;;2.80;2.60;;;;;;;21.30;31.77;94390.59;6140707;28;102889;-63
2023/01/21 09:09:56;;;;;;;2.53;2.33;;;;;;;21.30;31.16;94395.13;6131803;28;103770;-63
2023/01/21 09:13:02;;;;;;;2.50;2.30;;;;;;;21.32;31.33;94409.69;6136357;28;104314;-63
2023/01/21 09:16:11;;;;;;;2.50;2.20;;;;;;;21.24;31.03;94402.53;6138290;28;104035;-63
2023/01/21 09:19:14;;;;;;;2.80;2.60;;;;;;;21.29;32.08;94406.88;6147239;28;103977;-63
2023/01/21 09:22:17;;;;;;;2.40;2.20;;;;;;;21.21;31.26;94398.63;6128865;28;103627;-63
2023/01/21 09:25:20;;;;;;;2.40;2.20;;;;;;;21.13;31.13;94385.31;6137953;28;103082;-62
2023/01/21 09:28:25;;;;;;;3.60;3.30;;;;;;;21.05;31.18;94378.13;6137075;28;102819;-63
2023/01/21 09:31:31;;;;;;;3.73;3.43;;;;;;;21.06;31.79;94390.34;6139339;28;102812;-63
2023/01/21 09:34:34;;;;;;;3.60;3.30;;;;;;;20.98;31.92;94389.19;6132017;28;103286;-62
2023/01/21 09:37:38;;;;;;;3.70;3.40;;;;;;;20.86;31.28;94378.44;6135663;28;104182;-63
2023/01/21 09:40:45;;;;;;;3.97;3.60;;;;;;;20.75;31.35;94379.84;6138044;28;102967;-63
2023/01/21 09:43:57;;;;;;;4.17;3.87;;;;;;;20.41;31.53;94369.97;6128138;28;102810;-62
2023/01/21 09:47:06;;;;;;;4.40;4.00;;;;;;;20.30;31.50;94380.09;6131101;28;105233;-63
2023/01/21 09:50:13;;;;;;;4.50;4.07;;;;;;;20.20;31.84;94367.88;6138430;28;104466;-63
2023/01/21 09:53:28;;;;;;;4.20;3.80;;;;;;;20.23;31.71;94358.50;6138400;28;103988;-63
2023/01/21 09:56:41;;;;;;;4.30;3.90;;;;;;;20.37;31.60;94369.03;6111951;28;104586;-63
2023/01/21 09:59:56;;;;;;;5.33;4.93;;;;;;;20.36;31.62;94344.34;6138329;28;104303;-63
2023/01/21 10:03:17;;;;;;;4.70;4.20;;;;;;;20.34;31.47;94356.38;6120737;28;103961;-64
2023/01/21 10:06:28;;;;;;;3.40;3.10;;;;;;;20.29;31.97;94347.44;6121647;28;103890;-63
2023/01/21 10:09:46;;;;;;;3.57;3.37;;;;;;;20.55;31.22;94338.72;6130873;28;103047;-63
2023/01/21 10:13:14;;;;;;;3.40;3.10;;;;;;;21.01;30.86;94346.03;6138677;28;104011;-63
2023/01/21 10:16:25;;;;;;;4.20;3.90;;;;;;;21.33;30.76;94343.94;6137413;28;104082;-63
2023/01/21 10:19:35;;;;;;;3.87;3.57;;;;;;;21.57;30.81;94330.09;6126013;28;103659;-63
2023/01/21 10:22:42;;;;;;;3.83;3.53;;;;;;;21.72;31.18;94321.59;6132369;28;104198;-62
2023/01/21 10:25:48;;;;;;;4.17;3.83;;;;;;;21.75;31.04;94316.38;6136999;28;103403;-63
2023/01/21 10:28:54;;;;;;;5.70;3.97;;;;;;;21.74;31.24;94332.69;6135697;28;103160;-63
2023/01/21 10:32:01;;;;;;;3.90;3.60;;;;;;;21.68;31.15;94326.00;6131637;28;105692;-64
2023/01/21 10:35:17;;;;;;;4.10;3.80;;;;;;;21.70;31.46;94324.56;6138005;28;103232;-64
2023/01/21 10:38:28;;;;;;;4.30;3.63;;;;;;;21.77;31.42;94324.84;6137201;28;102992;-62
2023/01/21 10:41:48;;;;;;;4.20;3.80;;;;;;;21.79;31.43;94322.63;6126685;28;103380;-63
2023/01/21 10:44:59;;;;;;;7.30;3.93;;;;;;;21.77;31.92;94313.41;6133942;28;103197;-63
2023/01/21 10:48:09;;;;;;;4.70;4.20;;;;;;;21.63;32.57;94299.53;6140721;28;102967;-63
2023/01/21 10:51:20;;;;;;;4.60;3.40;;;;;;;21.64;31.78;94287.78;6135306;28;103130;-62
2023/01/21 10:54:31;;;;;;;3.70;3.40;;;;;;;21.84;31.23;94295.06;6125472;28;103762;-63
2023/01/21 10:57:53;;;;;;;3.13;2.83;;;;;;;21.96;31.66;94295.16;6127908;28;103378;-62
2023/01/21 11:01:00;;;;;;;4.10;3.80;;;;;;;21.96;31.56;94300.47;6135312;28;104168;-62
2023/01/21 11:04:13;;;;;;;3.40;3.10;;;;;;;21.99;32.18;94283.84;6125427;28;104171;-62
2023/01/21 11:07:21;;;;;;;12.60;4.07;;;;;;;22.03;31.77;94274.13;6134549;28;103174;-63
2023/01/21 11:10:26;;;;;;;4.30;3.37;;;;;;;22.01;32.49;94276.34;6137309;28;103864;-61
2023/01/21 11:13:29;;;;;;;5.43;3.43;;;;;;;21.99;32.68;94278.50;6137462;28;104010;-62
2023/01/21 11:16:42;;;;;;;4.83;3.10;;;;;;;22.04;33.38;94275.69;6124804;28;104162;-61
2023/01/21 11:19:58;;;;;;;5.00;3.70;;;;;;;22.11;34.00;94275.94;6133179;28;102917;-63
2023/01/21 11:23:06;;;;;;;7.73;4.10;;;;;;;22.14;34.83;94287.03;6137352;28;103792;-62
2023/01/21 11:26:20;;;;;;;5.10;3.37;;;;;;;22.07;34.97;94277.69;6141556;28;104101;-62
2023/01/21 11:29:25;;;;;;;5.00;3.87;;;;;;;22.08;36.15;94283.81;6137641;28;105882;-61
2023/01/21 11:32:30;;;;;;;5.43;3.93;;;;;;;22.02;35.47;94272.56;6161361;28;103452;-62
2023/01/21 11:35:33;;;;;;;4.67;3.90;;;;;;;22.05;35.98;94285.22;6142665;28;104054;-61
2023/01/21 11:38:37;;;;;;;5.23;4.60;;;;;;;22.01;37.48;94281.66;6126264;28;103395;-62
2023/01/21 11:41:51;;;;;;;5.43;3.53;;;;;;;21.99;37.53;94277.72;6140267;28;103428;-62
2023/01/21 11:45:26;;;;;;;4.30;3.97;;;;;;;21.90;37.45;94255.72;6136465;28;102822;-62
2023/01/21 11:48:29;;;;;;;3.40;3.10;;;;;;;21.86;37.77;94255.59;6134049;28;103538;-62
2023/01/21 11:51:34;;;;;;;3.87;3.50;;;;;;;21.88;38.13;94258.69;6133203;28;104005;-62
2023/01/21 11:54:39;;;;;;;5.00;3.40;;;;;;;21.88;38.44;94269.34;6138191;28;104281;-61
2023/01/21 11:57:45;;;;;;;5.40;3.53;;;;;;;21.86;38.64;94265.47;6137750;28;103971;-61
2023/01/21 12:00:51;;;;;;;4.80;4.07;;;;;;;21.79;38.94;94260.59;6129296;28;104196;-62
2023/01/21 12:03:59;;;;;;;4.20;3.80;;;;;;;21.74;38.90;94260.78;6139834;28;103163;-61
2023/01/21 12:07:05;;;;;;;5.13;4.37;;;;;;;21.77;39.29;94281.44;6131049;28;103056;-61
2023/01/21 12:10:24;;;;;;;4.97;4.10;;;;;;;21.75;39.31;94304.97;6138743;28;103394;-61
2023/01/21 12:13:35;;;;;;;7.93;4.13;;;;;;;21.66;39.40;94282.91;6128253;28;103630;-62
2023/01/21 12:16:46;;;;;;;10.97;4.13;;;;;;;21.39;38.59;94233.56;6131561;28;103186;-62
2023/01/21 12:20:01;;;;;;;4.40;3.83;;;;;;;21.69;38.34;94284.94;6138836;28;105356;-61
2023/01/21 12:23:22;;;;;;;5.80;3.40;;;;;;;21.61;38.45;94283.88;6138389;28;103992;-61
2023/01/21 12:26:37;;;;;;;6.70;3.80;;;;;;;21.50;37.88;94262.16;6123455;28;103015;-62
2023/01/21 12:29:52;;;;;;;4.30;3.80;;;;;;;21.45;37.00;94246.38;6136714;28;104811;-61
2023/01/21 12:33:01;;;;;;;5.50;4.30;;;;;;;21.42;36.01;94246.22;6142296;28;103075;-62
2023/01/21 12:36:11;;;;;;;4.10;3.80;;;;;;;21.38;36.24;94248.75;6135578;28;103577;-62
2023/01/21 12:39:20;;;;;;;5.43;3.60;;;;;;;21.38;36.04;94267.38;6128537;28;102926;-61
2023/01/21 12:42:33;;;;;;;3.90;3.37;;;;;;;21.35;35.24;94285.88;6139813;28;102937;-62
2023/01/21 12:45:44;;;;;;;4.40;4.00;;;;;;;21.33;34.97;94291.50;6146962;28;103289;-62
2023/01/21 12:48:52;;;;;;;4.07;3.67;;;;;;;21.32;35.06;94292.59;6139689;28;102949;-61
2023/01/21 12:51:59;;;;;;;3.53;3.23;;;;;;;21.15;34.62;94287.34;6134113;28;102962;-61
2023/01/21 12:55:12;;;;;;;3.57;3.30;;;;;;;21.32;34.64;94310.44;6130652;28;103801;-62
2023/01/21 12:58:31;;;;;;;3.97;3.63;;;;;;;21.48;34.96;94298.19;6133170;28;104266;-62
2023/01/21 13:01:43;;;;;;;4.70;3.10;;;;;;;21.52;35.14;94285.81;6134341;28;103712;-61
2023/01/21 13:04:54;;;;;;;3.33;2.90;;;;;;;21.56;35.64;94312.56;6132242;28;103006;-62
2023/01/21 13:08:05;;;;;;;6.20;3.77;;;;;;;21.57;36.24;94320.22;6129304;28;103146;-62
2023/01/21 13:11:17;;;;;;;4.90;3.70;;;;;;;21.59;35.91;94318.03;6138140;28;104000;-62
2023/01/21 13:14:30;;;;;;;3.50;3.00;;;;;;;21.65;35.80;94321.28;6134938;28;103139;-61
2023/01/21 13:17:36;;;;;;;4.00;3.20;;;;;;;21.68;36.39;94320.66;6130362;28;103747;-62
2023/01/21 13:20:44;;;;;;;5.70;3.40;;;;;;;21.57;36.11;94316.78;6128472;28;103008;-62
2023/01/21 13:23:58;;;;;;;6.17;3.57;;;;;;;21.57;36.69;94322.91;6137983;28;103103;-62
2023/01/21 13:27:12;;;;;;;3.90;3.60;;;;;;;21.49;36.08;94319.16;6131049;28;104370;-63
2023/01/21 13:30:28;;;;;;;4.30;3.90;;;;;;;21.43;35.22;94338.28;6127963;28;103894;-61
2023/01/21 13:33:44;;;;;;;3.43;3.13;;;;;;;21.39;35.00;94338.16;6132858;28;104479;-62
2023/01/21 13:37:01;;;;;;;3.47;3.17;;;;;;;21.33;34.04;94341.28;6134125;28;105121;-62
2023/01/21 13:40:24;;;;;;;4.00;3.70;;;;;;;21.29;33.94;94335.03;6146220;28;102973;-62
2023/01/21 13:43:53;;;;;;;3.87;3.57;;;;;;;21.22;33.93;94340.84;6137235;28;102937;-62
2023/01/21 13:47:09;;;;;;;4.73;3.77;;;;;;;21.33;34.07;94346.59;6129871;28;103355;-63
2023/01/21 13:50:23;;;;;;;5.40;4.90;;;;;;;20.72;33.88;94341.38;6132048;28;103438;-63
2023/01/21 13:53:53;;;;;;;6.53;5.20;;;;;;;20.91;34.05;94347.13;6130206;28;103545;-62
2023/01/21 13:57:07;;;;;;;4.40;4.00;;;;;;;21.07;34.04;94357.31;6134429;28;103168;-61
2023/01/21 15:49:42;;;;;;;14.57;7.03;;;;;;;21.24;35.61;94457.63;6247503;22;103136;-61
2023/01/21 15:53:09;;;;;;;18.50;6.47;;;;;;;21.31;35.52;94466.69;6228504;28;103154;-61
2023/01/21 15:56:25;;;;;;;30.80;7.13;;;;;;;21.21;35.54;94472.34;6232728;27;103027;-63
2023/01/21 15:59:52;;;;;;;121.43;16.93;;;;;;;21.10;34.73;94473.72;6232161;28;104129;-64
2023/01/21 16:03:00;;;;;;;31.77;8.57;;;;;;;21.11;34.87;94467.31;6226244;28;104297;-63
2023/01/21 16:06:19;;;;;;;39.47;8.77;;;;;;;21.26;35.30;94477.50;6227173;27;103101;-62
2023/01/21 16:09:34;;;;;;;39.07;8.83;;;;;;;21.30;35.04;94482.97;6222800;28;103211;-61
2023/01/21 16:39:55;;;;;;;30.37;8.47;;;;;;;21.40;36.94;94499.41;6219672;22;1344329;-61
2023/01/21 16:43:12;;;;;;;52.47;10.30;;;;;;;21.49;37.02;94504.72;6224031;27;103487;-61
2023/01/21 16:50:34;;;;;;;37.17;8.87;;;;;;;21.53;37.65;94505.66;6223272;28;102766;-60
2023/01/21 16:53:39;;;;;;;30.37;8.33;;;;;;;21.63;38.07;94502.66;6220235;27;103874;-60
2023/01/21 16:56:49;;;;;;;29.17;7.83;;;;;;;21.64;38.26;94512.22;6200012;28;104493;-61
2023/01/21 16:59:56;;;;;;;27.63;9.23;;;;;;;21.66;38.48;94517.22;6222937;27;103591;-60